9 de Julio, Argentina
Current Conditions -  °F | °C
As of 5:00 AM on Sunday 23 Nov 2014 (Local Time) from SAME Reporting Station
Clear Clear  
Wind Chill: 18°   Ceiling: Unl
Heat Index: 18°   Visibility: 6mi
Dew Point:   Wind: 0mph
Humidity: 49%   Direction: NA
Pressure: 29.74"   Gusts: NA
Location:  31.65°S, 68.4°W
Report Text: SAME 230800Z 00000KT CAVOK 18/07 Q1007
Loading
Personal Weather Stations






























Interactive Weather Map New forecast layout! Learn more

10-Day Weather Forecast

Advertisements
Track Severe Weather on mobile